Time;durP1;ratioP1;P1;durP2;ratioP2;P2;SDS_P1;SDS_P2;PMS_P1;PMS_P2;Temp;Humidity;BMP_temperature;BMP_pressure;BME280_temperature;BME280_humidity;BME280_pressure;Samples;Min_cycle;Max_cycle;Signal;HPM_P1;HPM_P2
2022/01/29 05:01:12;;;;;;;26.35;12.20;;;6.20;99.90;;;;;;5598796;23;20235;-68
2022/01/29 05:03:39;;;;;;;26.60;14.32;;;6.20;99.90;;;;;;4955387;28;20213;-68
2022/01/29 05:06:09;;;;;;;17.77;12.43;;;6.20;99.90;;;;;;4952981;28;20217;-67
2022/01/29 05:08:36;;;;;;;28.75;13.45;;;6.20;99.90;;;;;;4953843;28;20263;-67
2022/01/29 05:11:04;;;;;;;29.02;14.40;;;6.20;99.90;;;;;;4956594;28;20309;-68
2022/01/29 05:13:32;;;;;;;27.17;13.50;;;6.20;99.90;;;;;;4958025;28;20205;-68
2022/01/29 05:16:13;;;;;;;21.10;12.68;;;6.20;99.90;;;;;;4958690;28;20228;-67
2022/01/29 05:26:56;;;;;;;25.65;13.05;;;6.30;99.90;;;;;;4958312;29;20272;-68
2022/01/29 05:29:26;;;;;;;23.95;14.95;;;6.30;99.90;;;;;;4958238;28;20304;-68
2022/01/29 05:31:53;;;;;;;25.33;14.23;;;6.30;99.90;;;;;;4958982;28;20239;-68
2022/01/29 05:34:22;;;;;;;30.63;14.32;;;6.30;99.90;;;;;;4958653;28;20205;-66
2022/01/29 05:36:49;;;;;;;26.20;13.93;;;6.30;99.90;;;;;;4979283;23;20199;-66
2022/01/29 05:39:15;;;;;;;30.55;15.80;;;6.30;99.90;;;;;;4937072;29;20269;-67
2022/01/29 05:41:42;;;;;;;26.27;14.13;;;6.40;99.90;;;;;;4954396;29;20684;-66
2022/01/29 05:44:09;;;;;;;26.67;15.65;;;6.40;99.90;;;;;;4958206;28;20579;-68
2022/01/29 05:46:36;;;;;;;31.60;16.50;;;6.40;99.90;;;;;;4959353;28;20278;-67
2022/01/29 05:49:02;;;;;;;28.80;15.70;;;6.40;99.90;;;;;;4945167;28;20214;-67
2022/01/29 05:51:31;;;;;;;24.98;14.20;;;6.40;99.90;;;;;;4941581;29;20273;-67
2022/01/29 05:53:58;;;;;;;32.78;16.30;;;6.40;99.90;;;;;;4941935;29;20237;-67
2022/01/29 05:56:24;;;;;;;30.55;15.98;;;6.50;99.90;;;;;;4941049;29;20206;-68
2022/01/29 05:58:51;;;;;;;32.30;16.63;;;6.50;99.90;;;;;;4942082;28;20233;-67
2022/01/29 06:01:18;;;;;;;32.40;17.92;;;6.50;99.90;;;;;;4940057;28;20202;-68
2022/01/29 06:03:45;;;;;;;32.85;18.38;;;6.50;99.90;;;;;;4956840;28;20209;-68
2022/01/29 06:06:12;;;;;;;33.42;15.85;;;6.50;99.90;;;;;;4947823;28;20734;-67
2022/01/29 06:08:40;;;;;;;31.15;16.90;;;6.50;99.90;;;;;;4940641;29;20229;-67
2022/01/29 06:11:07;;;;;;;30.63;16.90;;;6.50;99.90;;;;;;4956495;29;20904;-67
2022/01/29 06:13:34;;;;;;;36.13;16.83;;;6.60;99.90;;;;;;4945851;28;20210;-67
2022/01/29 06:16:01;;;;;;;30.02;16.52;;;6.60;99.90;;;;;;4953973;29;20718;-68
2022/01/29 06:18:29;;;;;;;29.70;16.38;;;6.60;99.90;;;;;;4957597;29;20229;-67
2022/01/29 06:20:57;;;;;;;30.70;16.85;;;6.60;99.90;;;;;;4945629;28;20221;-67
2022/01/29 06:23:30;;;;;;;29.63;15.40;;;6.70;99.90;;;;;;4936493;29;20623;-67
2022/01/29 06:25:58;;;;;;;29.15;14.95;;;6.70;99.90;;;;;;4937438;29;20217;-68
2022/01/29 06:28:25;;;;;;;38.15;17.20;;;6.70;99.90;;;;;;4939944;29;20225;-68
2022/01/29 06:30:52;;;;;;;34.40;16.05;;;6.70;99.90;;;;;;4954040;28;20555;-66
2022/01/29 06:33:18;;;;;;;32.80;16.75;;;6.70;99.90;;;;;;4936781;29;20201;-68
2022/01/29 06:35:46;;;;;;;40.67;19.40;;;6.70;99.90;;;;;;4936769;29;20268;-66
2022/01/29 06:38:14;;;;;;;34.55;18.85;;;6.70;99.90;;;;;;4934751;29;20233;-67
2022/01/29 06:40:42;;;;;;;31.98;17.63;;;6.80;99.90;;;;;;4952087;29;20209;-68
2022/01/29 06:43:10;;;;;;;38.08;17.52;;;6.80;99.90;;;;;;4937179;29;20210;-67
2022/01/29 06:45:38;;;;;;;34.70;17.92;;;6.80;99.90;;;;;;4936694;29;20210;-68
2022/01/29 06:48:06;;;;;;;32.88;17.90;;;6.80;99.90;;;;;;4935992;28;20225;-67
2022/01/29 06:50:33;;;;;;;32.17;18.33;;;6.80;99.90;;;;;;4935596;29;20241;-67
2022/01/29 06:52:59;;;;;;;32.65;18.73;;;6.80;99.90;;;;;;4936332;29;20247;-68
2022/01/29 06:55:26;;;;;;;34.42;17.23;;;6.90;99.90;;;;;;4954745;29;20690;-68
2022/01/29 06:57:53;;;;;;;38.72;20.25;;;6.90;99.90;;;;;;4944138;28;20221;-67
2022/01/29 07:00:21;;;;;;;34.38;17.52;;;6.90;99.90;;;;;;4935151;29;20206;-68
2022/01/29 07:02:48;;;;;;;36.38;19.02;;;7.00;99.90;;;;;;4935875;29;20273;-68
2022/01/29 07:05:15;;;;;;;44.00;22.20;;;7.00;99.90;;;;;;4936430;29;20277;-67
2022/01/29 07:07:41;;;;;;;38.58;18.15;;;7.00;99.90;;;;;;4935666;29;20261;-68
2022/01/29 07:10:09;;;;;;;39.72;19.73;;;7.00;99.90;;;;;;4934482;29;20257;-68
2022/01/29 07:12:37;;;;;;;42.75;20.10;;;7.10;99.90;;;;;;4935302;29;20771;-68
2022/01/29 07:15:05;;;;;;;36.38;20.15;;;7.10;99.90;;;;;;4935956;29;20202;-67
2022/01/29 07:17:33;;;;;;;36.85;19.17;;;7.10;99.90;;;;;;4935677;29;20292;-67
2022/01/29 07:19:59;;;;;;;40.38;19.98;;;7.10;99.90;;;;;;4936374;29;20257;-68
2022/01/29 07:22:26;;;;;;;37.88;18.52;;;7.10;99.90;;;;;;4936277;29;20201;-67
2022/01/29 07:24:53;;;;;;;37.72;17.52;;;7.20;99.90;;;;;;4935676;29;20679;-66
2022/01/29 07:27:20;;;;;;;40.45;19.80;;;7.20;99.90;;;;;;4936581;29;20237;-66
2022/01/29 07:29:46;;;;;;;37.88;19.70;;;7.20;99.90;;;;;;4936934;29;20209;-67
2022/01/29 07:32:13;;;;;;;35.00;18.00;;;7.20;99.90;;;;;;4936112;29;20568;-66
2022/01/29 07:34:41;;;;;;;36.35;18.30;;;7.20;99.90;;;;;;4935767;29;20206;-65
2022/01/29 07:37:08;;;;;;;38.22;18.92;;;7.20;99.90;;;;;;4926408;29;20736;-68
2022/01/29 07:39:35;;;;;;;34.95;16.90;;;7.30;99.90;;;;;;4934275;29;20231;-67
2022/01/29 07:42:02;;;;;;;29.98;15.57;;;7.30;99.90;;;;;;4923505;29;20207;-66
2022/01/29 07:44:29;;;;;;;33.15;16.02;;;7.30;99.90;;;;;;4931065;29;20201;-67
2022/01/29 07:46:55;;;;;;;27.90;15.98;;;7.30;99.90;;;;;;4932436;29;20253;-68
2022/01/29 07:49:22;;;;;;;31.77;16.00;;;7.30;99.90;;;;;;4935864;29;20206;-65
2022/01/29 07:51:50;;;;;;;27.77;15.27;;;7.30;99.90;;;;;;4948618;28;20265;-67
2022/01/29 07:54:17;;;;;;;23.88;14.25;;;7.30;99.90;;;;;;4935424;29;20213;-67
2022/01/29 07:56:44;;;;;;;26.75;15.70;;;7.30;99.90;;;;;;4941746;28;20209;-67
2022/01/29 07:59:11;;;;;;;27.40;14.10;;;7.40;99.90;;;;;;4939855;29;20206;-67
2022/01/29 08:01:38;;;;;;;27.95;14.70;;;7.40;99.90;;;;;;4938992;29;20202;-67
2022/01/29 08:04:04;;;;;;;29.08;14.68;;;7.40;99.90;;;;;;4954257;28;20248;-66
2022/01/29 08:06:31;;;;;;;23.40;13.88;;;7.50;99.90;;;;;;4921007;29;20206;-66
2022/01/29 08:08:59;;;;;;;29.55;15.40;;;7.40;99.90;;;;;;4953469;28;20208;-66
2022/01/29 08:11:26;;;;;;;28.33;14.20;;;7.50;99.90;;;;;;4943572;28;20221;-67
2022/01/29 08:13:53;;;;;;;26.42;13.27;;;7.50;99.90;;;;;;4947401;28;20309;-67
2022/01/29 08:16:20;;;;;;;27.27;12.88;;;7.50;99.90;;;;;;4952499;28;20213;-67
2022/01/29 08:18:46;;;;;;;20.70;12.88;;;7.50;99.90;;;;;;4940288;28;20394;-66
2022/01/29 08:21:14;;;;;;;19.98;12.20;;;7.50;99.90;;;;;;4934642;29;20249;-66
2022/01/29 08:23:41;;;;;;;22.02;12.63;;;7.60;99.90;;;;;;4935716;29;20202;-66
2022/01/29 08:26:09;;;;;;;25.48;13.68;;;7.60;99.90;;;;;;4938925;29;20292;-67
2022/01/29 08:28:36;;;;;;;28.02;13.57;;;7.60;99.90;;;;;;4933510;29;20599;-67
2022/01/29 08:31:03;;;;;;;23.30;11.70;;;7.60;99.90;;;;;;4934358;29;20208;-66
2022/01/29 08:33:30;;;;;;;24.98;12.68;;;7.60;99.90;;;;;;4935235;29;20671;-67
2022/01/29 08:35:57;;;;;;;20.80;12.77;;;7.60;99.90;;;;;;4933501;29;20220;-67
2022/01/29 08:38:24;;;;;;;21.08;12.73;;;7.70;99.90;;;;;;4934335;29;20284;-67
2022/01/29 08:40:51;;;;;;;18.98;12.48;;;7.70;99.90;;;;;;4933426;29;20619;-66
2022/01/29 08:43:19;;;;;;;25.20;13.35;;;7.80;99.90;;;;;;4927822;29;20272;-67
2022/01/29 08:45:46;;;;;;;27.40;16.40;;;7.80;99.90;;;;;;4934115;29;20272;-66
2022/01/29 08:48:12;;;;;;;19.30;10.85;;;7.80;99.90;;;;;;4934146;29;20298;-67
2022/01/29 08:50:40;;;;;;;21.60;13.45;;;7.80;99.90;;;;;;4934312;29;20218;-66
2022/01/29 08:53:07;;;;;;;22.85;12.80;;;7.80;99.90;;;;;;4934344;29;20237;-67
2022/01/29 08:55:37;;;;;;;19.60;12.50;;;7.80;99.90;;;;;;4951252;28;20233;-67
2022/01/29 08:58:05;;;;;;;21.00;11.85;;;7.80;99.90;;;;;;4937336;28;20241;-65
2022/01/29 09:00:33;;;;;;;26.25;15.90;;;7.80;99.90;;;;;;4933689;29;20691;-66
2022/01/29 09:03:00;;;;;;;19.42;11.18;;;7.90;99.90;;;;;;4934463;29;20206;-66
2022/01/29 09:05:27;;;;;;;17.27;11.13;;;7.90;99.90;;;;;;4934434;29;20202;-67
2022/01/29 09:07:53;;;;;;;17.08;11.82;;;7.90;99.90;;;;;;4933741;29;20934;-68
2022/01/29 09:10:20;;;;;;;19.90;10.77;;;8.00;99.90;;;;;;4935866;29;20256;-66
2022/01/29 09:12:47;;;;;;;22.60;10.63;;;8.00;99.90;;;;;;4938804;28;20241;-66
2022/01/29 09:15:14;;;;;;;22.25;12.02;;;8.00;99.90;;;;;;4933653;29;20595;-67
2022/01/29 09:17:42;;;;;;;16.83;10.63;;;8.00;99.90;;;;;;4939704;29;20781;-67
2022/01/29 09:20:10;;;;;;;17.30;10.40;;;8.00;99.90;;;;;;4934292;29;20273;-67
2022/01/29 09:22:37;;;;;;;16.55;9.40;;;8.00;99.90;;;;;;4934239;29;20790;-67
2022/01/29 09:25:05;;;;;;;13.05;9.07;;;8.10;99.90;;;;;;4942124;29;20206;-66
2022/01/29 09:27:32;;;;;;;12.93;9.32;;;8.10;99.90;;;;;;4934017;29;20284;-67
2022/01/29 09:29:58;;;;;;;13.00;8.10;;;8.10;99.90;;;;;;4933832;29;20253;-66
2022/01/29 09:32:25;;;;;;;12.25;8.00;;;8.20;99.90;;;;;;4941992;29;20586;-65
2022/01/29 09:34:53;;;;;;;12.65;7.80;;;8.20;99.90;;;;;;4948782;28;20345;-67
2022/01/29 09:37:20;;;;;;;9.80;7.70;;;8.10;99.90;;;;;;4934662;28;20563;-67
2022/01/29 09:39:47;;;;;;;12.63;8.30;;;8.10;99.90;;;;;;4937101;29;20287;-66
2022/01/29 09:42:14;;;;;;;12.32;8.25;;;8.20;99.90;;;;;;4933907;29;20229;-67
2022/01/29 09:44:42;;;;;;;12.80;7.63;;;8.20;99.90;;;;;;4933525;29;20269;-66
2022/01/29 09:47:10;;;;;;;11.30;7.40;;;8.20;99.90;;;;;;4931390;29;20651;-66
2022/01/29 09:49:37;;;;;;;11.45;7.95;;;8.20;99.90;;;;;;4933881;29;20618;-66
2022/01/29 09:52:06;;;;;;;13.70;8.90;;;8.20;99.90;;;;;;4946545;29;20218;-67
2022/01/29 09:54:32;;;;;;;14.85;8.45;;;8.20;99.90;;;;;;4934505;29;20267;-67
2022/01/29 09:56:59;;;;;;;12.75;7.63;;;8.30;99.90;;;;;;4933953;29;20226;-66
2022/01/29 09:59:27;;;;;;;11.05;7.43;;;8.30;99.90;;;;;;4937307;29;20210;-66
2022/01/29 10:01:54;;;;;;;9.52;7.10;;;8.30;99.90;;;;;;4940086;29;20226;-65
2022/01/29 10:04:21;;;;;;;9.95;7.35;;;8.30;99.90;;;;;;4941847;29;20322;-66
2022/01/29 10:07:16;;;;;;;13.40;8.68;;;8.30;99.90;;;;;;4945028;28;20504;-66
2022/01/29 10:09:43;;;;;;;11.48;7.10;;;8.30;99.90;;;;;;4943575;29;20201;-65
2022/01/29 10:12:20;;;;;;;9.25;7.03;;;8.30;99.90;;;;;;4942071;28;20222;-67
2022/01/29 10:14:50;;;;;;;9.15;6.60;;;8.30;99.90;;;;;;4952168;28;20240;-66
2022/01/29 10:17:44;;;;;;;14.50;6.13;;;8.40;99.90;;;;;;4945224;28;20637;-68
2022/01/29 10:20:14;;;;;;;7.90;6.43;;;8.40;99.90;;;;;;4952117;29;20216;-67
2022/01/29 10:22:44;;;;;;;7.22;5.55;;;8.40;99.90;;;;;;4947692;29;20194;-67
2022/01/29 10:25:14;;;;;;;7.47;6.78;;;8.40;99.90;;;;;;4953899;29;20206;-68
2022/01/29 10:28:01;;;;;;;7.07;5.57;;;8.40;99.90;;;;;;4932523;29;20233;-67
2022/01/29 10:30:30;;;;;;;6.25;5.65;;;8.40;99.90;;;;;;4940561;29;20198;-66
2022/01/29 10:33:17;;;;;;;6.82;5.47;;;8.40;99.90;;;;;;4942511;29;20224;-68
2022/01/29 10:35:44;;;;;;;6.80;5.25;;;8.40;99.90;;;;;;4939521;28;20298;-67
2022/01/29 10:38:12;;;;;;;5.50;4.78;;;8.40;99.90;;;;;;4935981;29;20308;-67
2022/01/29 10:40:39;;;;;;;7.57;5.45;;;8.40;99.90;;;;;;4944193;29;20339;-66
2022/01/29 10:43:06;;;;;;;8.25;5.57;;;8.50;99.90;;;;;;4932465;29;20198;-65
2022/01/29 10:45:34;;;;;;;6.50;4.95;;;8.50;99.90;;;;;;4947330;29;20202;-67
2022/01/29 10:48:03;;;;;;;6.35;5.28;;;8.50;99.90;;;;;;4936979;29;20222;-67
2022/01/29 10:50:30;;;;;;;8.23;5.10;;;8.50;99.90;;;;;;4944681;29;20265;-67
2022/01/29 10:52:57;;;;;;;6.38;5.28;;;8.50;99.90;;;;;;4939948;29;20300;-66
2022/01/29 10:55:25;;;;;;;7.00;5.50;;;8.50;99.90;;;;;;4936711;29;20270;-66
2022/01/29 10:57:52;;;;;;;10.23;6.07;;;8.50;99.90;;;;;;4934291;29;20284;-66
2022/01/29 11:00:22;;;;;;;6.18;5.50;;;8.50;99.90;;;;;;4937102;29;20229;-65
2022/01/29 11:02:49;;;;;;;7.60;5.35;;;8.50;99.90;;;;;;4936930;29;20197;-65
2022/01/29 11:05:17;;;;;;;6.28;5.53;;;8.60;99.90;;;;;;4936303;29;20210;-67
2022/01/29 11:07:47;;;;;;;5.55;5.05;;;8.60;99.90;;;;;;4938192;29;20265;-67
2022/01/29 11:10:13;;;;;;;7.63;6.45;;;8.60;99.90;;;;;;4952038;28;20297;-68
2022/01/29 11:12:45;;;;;;;6.10;5.47;;;8.60;99.90;;;;;;4935901;29;20226;-68
2022/01/29 11:15:12;;;;;;;7.35;6.20;;;8.70;99.90;;;;;;4952614;28;20330;-65
2022/01/29 11:17:39;;;;;;;6.53;5.82;;;8.70;99.90;;;;;;4941623;29;20285;-67
2022/01/29 11:20:07;;;;;;;8.48;5.25;;;8.70;99.90;;;;;;4940149;29;20206;-69
2022/01/29 11:22:38;;;;;;;7.75;5.40;;;8.70;99.90;;;;;;4935164;29;20213;-67
2022/01/29 11:25:08;;;;;;;7.38;5.97;;;8.70;99.90;;;;;;4943603;29;20210;-66
2022/01/29 11:27:37;;;;;;;7.78;6.07;;;8.80;99.90;;;;;;4932574;29;20225;-67
2022/01/29 11:30:12;;;;;;;12.10;7.63;;;8.80;99.90;;;;;;4940342;29;20217;-67
2022/01/29 11:32:42;;;;;;;15.60;10.82;;;8.80;99.90;;;;;;4917885;29;20222;-65
2022/01/29 11:35:20;;;;;;;9.23;6.07;;;8.80;99.90;;;;;;4917814;29;20384;-66
2022/01/29 11:37:53;;;;;;;8.57;7.03;;;8.80;99.90;;;;;;4933446;29;20713;-67
2022/01/29 11:40:23;;;;;;;9.32;7.10;;;8.80;99.90;;;;;;4922639;29;20683;-67
2022/01/29 11:43:07;;;;;;;8.63;6.55;;;8.80;99.90;;;;;;4917314;29;20207;-66
2022/01/29 11:45:50;;;;;;;9.05;7.47;;;8.80;99.90;;;;;;4917494;29;20253;-65
2022/01/29 11:48:39;;;;;;;8.00;6.00;;;8.80;99.90;;;;;;4925331;29;20297;-67
2022/01/29 11:51:08;;;;;;;6.20;5.57;;;8.80;99.90;;;;;;4930978;29;20241;-67
2022/01/29 11:53:56;;;;;;;8.20;7.20;;;8.90;99.90;;;;;;4916610;29;20222;-67
2022/01/29 11:56:27;;;;;;;6.72;6.10;;;8.90;99.90;;;;;;4917428;29;20218;-67
2022/01/29 11:59:24;;;;;;;8.85;6.78;;;8.90;99.90;;;;;;4930165;29;20717;-66
2022/01/29 12:01:54;;;;;;;6.63;5.90;;;8.90;99.90;;;;;;4918243;29;20222;-67
2022/01/29 12:04:22;;;;;;;8.27;5.25;;;8.90;99.90;;;;;;4919124;29;20214;-68
2022/01/29 12:07:11;;;;;;;7.95;6.53;;;8.90;99.90;;;;;;4918162;29;20218;-67
2022/01/29 12:09:47;;;;;;;5.70;4.78;;;8.90;99.90;;;;;;4916314;29;20210;-67
2022/01/29 12:12:22;;;;;;;6.70;5.38;;;8.90;99.90;;;;;;4916293;29;20206;-67
2022/01/29 12:14:51;;;;;;;5.72;4.95;;;8.90;99.90;;;;;;4916561;29;20289;-68
2022/01/29 12:17:35;;;;;;;6.00;5.40;;;8.90;99.90;;;;;;4924665;29;20245;-67
2022/01/29 12:20:04;;;;;;;6.57;5.88;;;8.90;99.90;;;;;;4934808;29;20214;-68
2022/01/29 12:22:35;;;;;;;10.48;6.68;;;8.90;99.90;;;;;;4937579;29;20285;-66
2022/01/29 12:25:04;;;;;;;9.07;6.43;;;8.90;99.90;;;;;;4935784;29;20213;-69
2022/01/29 12:27:48;;;;;;;8.13;6.50;;;8.90;99.90;;;;;;4928997;29;20234;-67
2022/01/29 12:30:19;;;;;;;11.18;7.40;;;8.90;99.90;;;;;;4933852;29;20244;-66
2022/01/29 12:32:58;;;;;;;8.18;6.88;;;8.90;99.90;;;;;;4934861;29;20232;-66
2022/01/29 12:35:33;;;;;;;10.27;6.20;;;8.90;99.90;;;;;;4934451;29;20268;-66
2022/01/29 12:37:59;;;;;;;9.80;7.20;;;8.90;99.90;;;;;;4929695;29;20225;-67
2022/01/29 12:40:27;;;;;;;9.82;7.57;;;9.00;99.90;;;;;;4924937;29;20210;-67
2022/01/29 12:42:59;;;;;;;10.90;6.97;;;8.90;99.90;;;;;;4915897;29;20211;-67
2022/01/29 12:45:30;;;;;;;10.23;7.50;;;9.00;99.90;;;;;;4916884;29;20346;-68
2022/01/29 12:48:09;;;;;;;8.20;5.75;;;9.00;99.90;;;;;;4928528;29;20313;-67
2022/01/29 12:50:36;;;;;;;7.75;5.60;;;9.00;99.90;;;;;;4927386;29;20280;-67
2022/01/29 12:53:07;;;;;;;8.07;6.15;;;9.00;99.90;;;;;;4929319;29;20574;-67
2022/01/29 12:55:34;;;;;;;7.32;6.45;;;8.90;99.90;;;;;;4916518;29;20210;-68
2022/01/29 12:58:01;;;;;;;6.95;5.30;;;8.90;99.90;;;;;;4931420;29;20229;-67
2022/01/29 13:00:28;;;;;;;6.63;5.57;;;8.90;99.90;;;;;;4917674;29;20215;-67
2022/01/29 13:03:04;;;;;;;7.90;6.00;;;9.00;99.90;;;;;;4917187;29;20206;-66
2022/01/29 13:05:33;;;;;;;7.80;6.53;;;9.00;99.90;;;;;;4932222;29;20285;-68
2022/01/29 13:08:00;;;;;;;6.53;6.00;;;9.00;99.90;;;;;;4918652;29;20734;-67
2022/01/29 13:10:33;;;;;;;7.10;6.45;;;9.00;99.90;;;;;;4921061;29;20203;-67
2022/01/29 13:13:00;;;;;;;10.35;7.60;;;9.00;99.90;;;;;;4931057;29;20743;-69
2022/01/29 13:15:36;;;;;;;8.85;7.22;;;9.00;99.90;;;;;;4918536;29;20262;-66
2022/01/29 13:18:03;;;;;;;7.40;6.70;;;9.00;99.90;;;;;;4931103;29;20265;-67
2022/01/29 13:20:30;;;;;;;12.80;8.30;;;9.10;99.90;;;;;;4925644;29;20205;-67
2022/01/29 13:22:58;;;;;;;10.10;6.90;;;9.10;99.90;;;;;;4939081;28;20212;-67
2022/01/29 13:25:29;;;;;;;7.28;6.57;;;9.10;99.90;;;;;;4938085;28;20596;-67
2022/01/29 13:28:05;;;;;;;8.60;6.68;;;9.20;99.90;;;;;;4942624;28;20707;-67
2022/01/29 13:30:32;;;;;;;10.38;6.57;;;9.20;99.90;;;;;;4933770;29;20213;-66
2022/01/29 13:33:07;;;;;;;6.95;6.30;;;9.30;99.90;;;;;;4935921;29;20234;-67
2022/01/29 13:35:34;;;;;;;7.65;6.85;;;9.30;99.90;;;;;;4953987;23;20283;-66
2022/01/29 13:38:17;;;;;;;6.85;6.15;;;9.30;99.90;;;;;;4995691;28;20219;-66
2022/01/29 13:40:47;;;;;;;6.55;5.95;;;9.30;99.90;;;;;;4995052;28;20230;-66
2022/01/29 13:43:16;;;;;;;8.10;7.03;;;9.30;99.90;;;;;;4994702;28;20207;-67
2022/01/29 13:45:50;;;;;;;7.47;6.60;;;9.30;99.90;;;;;;4995116;28;20207;-67
2022/01/29 13:48:17;;;;;;;10.35;6.50;;;9.30;99.90;;;;;;4986568;28;20208;-66
2022/01/29 13:50:46;;;;;;;6.93;6.05;;;9.30;99.90;;;;;;4980410;28;20251;-67
2022/01/29 13:53:15;;;;;;;9.93;6.57;;;9.30;99.90;;;;;;4984177;28;20234;-66
2022/01/29 13:55:59;;;;;;;10.00;7.00;;;9.30;99.90;;;;;;4990313;28;20932;-66
2022/01/29 13:58:28;;;;;;;6.93;6.20;;;9.30;99.90;;;;;;4976797;28;20245;-69
2022/01/29 14:00:57;;;;;;;6.65;6.05;;;9.30;99.90;;;;;;4994292;28;20216;-67
2022/01/29 14:03:48;;;;;;;6.65;6.13;;;9.30;99.90;;;;;;4986474;28;20208;-67
2022/01/29 14:06:31;;;;;;;6.15;5.55;;;9.30;99.90;;;;;;4987888;28;20303;-67
2022/01/29 14:09:19;;;;;;;6.70;5.75;;;9.40;99.90;;;;;;4987912;28;20208;-67
2022/01/29 14:12:06;;;;;;;6.53;5.18;;;9.40;99.90;;;;;;4988013;28;20205;-70
2022/01/29 14:14:36;;;;;;;5.15;4.85;;;9.40;99.90;;;;;;4979416;28;20764;-69
2022/01/29 14:17:04;;;;;;;7.07;6.47;;;9.50;99.90;;;;;;4988410;28;20368;-67
2022/01/29 14:19:31;;;;;;;6.88;5.38;;;9.50;99.90;;;;;;4978294;28;20271;-72
2022/01/29 14:21:59;;;;;;;5.32;5.03;;;9.50;99.90;;;;;;4987400;28;20247;-68
2022/01/29 14:24:28;;;;;;;6.85;5.40;;;9.50;99.90;;;;;;4981853;28;20613;-66
2022/01/29 14:26:56;;;;;;;6.15;5.55;;;9.50;99.90;;;;;;4982486;28;20298;-67
2022/01/29 14:29:23;;;;;;;9.98;6.18;;;9.50;99.90;;;;;;4993501;28;20262;-67
2022/01/29 14:31:49;;;;;;;6.03;5.53;;;9.50;99.90;;;;;;4992533;28;20578;-70
2022/01/29 14:34:16;;;;;;;5.32;4.93;;;9.50;99.90;;;;;;4974778;28;20224;-67
2022/01/29 14:36:44;;;;;;;6.10;4.88;;;9.50;99.90;;;;;;4990176;28;20232;-67
2022/01/29 14:39:11;;;;;;;6.22;5.63;;;9.40;99.90;;;;;;4993349;28;20616;-67
2022/01/29 14:41:40;;;;;;;4.70;4.40;;;9.40;99.90;;;;;;4992804;28;20208;-69
2022/01/29 14:44:07;;;;;;;5.72;5.05;;;9.40;99.90;;;;;;4972883;28;20208;-66
2022/01/29 14:46:34;;;;;;;5.10;4.70;;;9.50;99.90;;;;;;4974259;28;20310;-68
2022/01/29 14:49:02;;;;;;;5.80;5.28;;;9.40;99.90;;;;;;4991168;28;20203;-66
2022/01/29 14:51:34;;;;;;;5.78;5.40;;;9.50;99.90;;;;;;4974847;28;20204;-66
2022/01/29 14:54:01;;;;;;;4.75;4.38;;;9.50;99.90;;;;;;4982714;28;20743;-67
2022/01/29 14:56:28;;;;;;;7.30;5.00;;;9.50;99.90;;;;;;4993643;28;20325;-68
2022/01/29 14:58:58;;;;;;;8.32;5.93;;;9.50;99.90;;;;;;4992876;28;20204;-66
2022/01/29 15:01:25;;;;;;;5.57;4.90;;;9.50;99.90;;;;;;4994108;28;20352;-67
2022/01/29 15:03:54;;;;;;;6.82;5.53;;;9.50;99.90;;;;;;4984937;28;20196;-67
2022/01/29 15:06:21;;;;;;;7.30;6.53;;;9.60;99.90;;;;;;4993476;28;20708;-67
2022/01/29 15:08:49;;;;;;;5.93;5.32;;;9.60;99.90;;;;;;4991920;28;20208;-68
2022/01/29 15:11:16;;;;;;;6.28;5.70;;;9.60;99.90;;;;;;4977105;28;20240;-67
2022/01/29 15:13:44;;;;;;;8.45;5.85;;;9.60;99.90;;;;;;4983888;28;20277;-69
2022/01/29 15:16:12;;;;;;;5.57;4.50;;;9.60;99.90;;;;;;4985440;28;20224;-70
2022/01/29 15:18:39;;;;;;;7.47;4.78;;;9.70;99.90;;;;;;4991064;28;20247;-70
2022/01/29 15:21:06;;;;;;;6.80;4.40;;;9.70;99.90;;;;;;4977225;28;20205;-67
2022/01/29 15:23:34;;;;;;;6.40;5.28;;;9.70;99.90;;;;;;4986738;28;20208;-67
2022/01/29 15:26:00;;;;;;;4.88;3.70;;;9.80;99.90;;;;;;4992023;28;20817;-67
2022/01/29 15:28:28;;;;;;;4.90;4.60;;;9.80;99.90;;;;;;4991811;28;20220;-67
2022/01/29 15:30:58;;;;;;;5.28;4.78;;;9.80;99.90;;;;;;4991797;28;20207;-67
2022/01/29 15:33:27;;;;;;;6.78;5.57;;;9.80;99.90;;;;;;4992084;28;20235;-67
2022/01/29 15:35:54;;;;;;;5.22;4.38;;;9.90;99.90;;;;;;4992527;28;20240;-68
2022/01/29 15:38:21;;;;;;;6.50;4.43;;;9.90;99.90;;;;;;4981245;28;20242;-67
2022/01/29 15:40:49;;;;;;;4.78;4.30;;;9.80;99.90;;;;;;4984633;28;20203;-68
2022/01/29 15:43:16;;;;;;;4.80;4.15;;;9.80;99.90;;;;;;4989713;28;20208;-68
2022/01/29 15:45:42;;;;;;;5.47;4.53;;;9.90;99.90;;;;;;4975863;28;20292;-69
2022/01/29 15:48:09;;;;;;;4.38;3.95;;;9.90;99.90;;;;;;4973803;28;20570;-71
2022/01/29 15:50:39;;;;;;;4.70;4.40;;;9.90;99.90;;;;;;4978902;28;20204;-67
2022/01/29 15:53:07;;;;;;;4.75;4.38;;;9.90;99.90;;;;;;4985717;28;20204;-68
2022/01/29 15:55:34;;;;;;;3.85;3.30;;;9.90;99.90;;;;;;4979358;28;20224;-68
2022/01/29 15:58:01;;;;;;;4.07;3.78;;;9.90;99.90;;;;;;4980859;28;20226;-67
2022/01/29 16:00:35;;;;;;;4.20;3.50;;;9.90;99.90;;;;;;4990117;28;20232;-67
2022/01/29 16:03:02;;;;;;;3.60;3.35;;;9.90;99.90;;;;;;4990404;28;20668;-67
2022/01/29 16:05:29;;;;;;;9.13;4.05;;;10.00;99.90;;;;;;4974770;28;20727;-67
2022/01/29 16:07:57;;;;;;;4.65;3.60;;;10.00;99.90;;;;;;4972978;28;20208;-67
2022/01/29 16:10:24;;;;;;;3.50;2.55;;;10.00;99.90;;;;;;4981121;28;20596;-67
2022/01/29 16:12:50;;;;;;;6.18;3.28;;;10.00;99.90;;;;;;4991116;28;20204;-67
2022/01/29 16:15:17;;;;;;;5.93;3.45;;;10.00;99.90;;;;;;4991929;28;20224;-67
2022/01/29 16:17:44;;;;;;;3.33;3.00;;;10.10;99.90;;;;;;4992077;28;20616;-68
2022/01/29 16:20:11;;;;;;;7.55;5.30;;;10.10;99.90;;;;;;4991515;28;20211;-68
2022/01/29 16:22:38;;;;;;;7.93;3.20;;;10.10;99.90;;;;;;4977751;28;20263;-68
2022/01/29 16:25:07;;;;;;;2.35;2.15;;;10.10;99.90;;;;;;4978675;28;20208;-68
2022/01/29 16:27:34;;;;;;;2.33;2.22;;;10.00;99.90;;;;;;4980671;28;20236;-67
2022/01/29 16:30:00;;;;;;;3.42;2.38;;;10.00;99.90;;;;;;4986599;28;20566;-68
2022/01/29 16:32:27;;;;;;;3.85;2.50;;;10.00;99.90;;;;;;4975964;28;20204;-68
2022/01/29 16:34:54;;;;;;;4.95;2.20;;;10.00;99.90;;;;;;4972679;28;20685;-67
2022/01/29 16:37:21;;;;;;;2.55;2.03;;;10.00;99.90;;;;;;4973964;28;20267;-68
2022/01/29 16:39:47;;;;;;;2.88;1.75;;;10.00;99.90;;;;;;4978931;28;20208;-68
2022/01/29 16:42:15;;;;;;;6.47;1.95;;;10.00;99.90;;;;;;4992472;28;20846;-68
2022/01/29 16:44:42;;;;;;;6.10;1.83;;;10.10;99.90;;;;;;4992027;28;20291;-68
2022/01/29 16:47:09;;;;;;;3.10;1.80;;;10.10;99.90;;;;;;4981365;28;20602;-69
2022/01/29 16:49:36;;;;;;;4.03;2.75;;;10.10;99.90;;;;;;4979478;28;20649;-68
2022/01/29 16:52:03;;;;;;;5.25;4.03;;;10.00;99.90;;;;;;4979958;28;20209;-69
2022/01/29 16:54:30;;;;;;;6.93;2.70;;;9.90;99.90;;;;;;4985571;28;20259;-68
2022/01/29 16:56:57;;;;;;;4.22;2.45;;;9.80;99.90;;;;;;4973537;28;20227;-69
2022/01/29 16:59:25;;;;;;;6.07;2.70;;;9.70;99.90;;;;;;4973519;28;20299;-66
2022/01/29 17:01:53;;;;;;;7.72;2.10;;;9.60;99.90;;;;;;4987684;28;20677;-70
2022/01/29 17:04:19;;;;;;;6.68;2.60;;;9.60;99.90;;;;;;4992724;28;20204;-69
2022/01/29 17:06:47;;;;;;;10.98;2.63;;;9.60;99.90;;;;;;4989012;28;20283;-69
2022/01/29 17:09:14;;;;;;;5.68;2.05;;;9.50;99.90;;;;;;4989952;28;20208;-70
2022/01/29 17:11:41;;;;;;;6.15;3.05;;;9.50;99.90;;;;;;4983413;28;20700;-68
2022/01/29 17:14:08;;;;;;;11.68;3.25;;;9.50;99.90;;;;;;4989820;28;20309;-68
2022/01/29 17:16:38;;;;;;;8.10;2.88;;;9.50;99.90;;;;;;4977423;28;20228;-68
2022/01/29 17:19:04;;;;;;;5.15;2.53;;;9.60;99.90;;;;;;4984793;28;20303;-68
2022/01/29 17:21:31;;;;;;;11.43;3.70;;;9.60;99.90;;;;;;4975952;28;20204;-69
2022/01/29 17:23:58;;;;;;;4.97;2.83;;;9.60;99.90;;;;;;4978981;28;20240;-68
2022/01/29 17:26:25;;;;;;;7.00;2.95;;;9.50;99.90;;;;;;4981754;28;20239;-69
2022/01/29 17:28:51;;;;;;;14.43;3.10;;;9.50;99.90;;;;;;4981992;28;20208;-68
2022/01/29 17:31:20;;;;;;;14.38;2.50;;;9.40;99.90;;;;;;4986243;28;20260;-68
2022/01/29 17:33:48;;;;;;;3.35;2.33;;;9.40;99.90;;;;;;4989649;28;20290;-67
2022/01/29 17:36:15;;;;;;;3.83;1.85;;;9.40;99.90;;;;;;4989862;28;20271;-68
2022/01/29 17:38:41;;;;;;;6.28;2.95;;;9.30;99.90;;;;;;4982038;28;20471;-66
2022/01/29 17:41:08;;;;;;;5.55;1.90;;;9.30;99.90;;;;;;4974403;28;20692;-67
2022/01/29 17:43:35;;;;;;;10.98;3.47;;;9.20;99.90;;;;;;4978888;28;20216;-68
2022/01/29 17:46:03;;;;;;;9.15;2.63;;;9.10;99.90;;;;;;4979815;28;20224;-67
2022/01/29 17:48:30;;;;;;;10.02;3.03;;;9.10;99.90;;;;;;4976251;28;20215;-69
2022/01/29 17:50:58;;;;;;;7.85;3.22;;;9.10;99.90;;;;;;4981965;28;20327;-67
2022/01/29 17:53:27;;;;;;;7.50;2.80;;;9.10;99.90;;;;;;4989439;28;20211;-68
2022/01/29 17:55:54;;;;;;;5.75;2.75;;;9.10;99.90;;;;;;4982154;28;20227;-67
2022/01/29 17:58:21;;;;;;;11.23;4.35;;;9.10;99.90;;;;;;4984656;28;20262;-68
2022/01/29 18:00:47;;;;;;;13.77;5.18;;;9.20;99.90;;;;;;4990214;28;20227;-67
2022/01/29 18:03:15;;;;;;;9.43;3.67;;;9.20;99.90;;;;;;4983405;28;20223;-69
2022/01/29 18:05:42;;;;;;;6.28;3.05;;;9.10;99.90;;;;;;4983546;28;20208;-68